Time;durP1;ratioP1;P1;durP2;ratioP2;P2;SDS_P1;SDS_P2;PMS_P1;PMS_P2;Temp;Humidity;BMP_temperature;BMP_pressure;BME280_temperature;BME280_humidity;BME280_pressure;Samples;Min_cycle;Max_cycle;Signal;HPM_P1;HPM_P2
2022/03/18 00:01:54;;;;;;;52.40;42.20;;;8.60;77.50;;;7.09;75.62;99538.25;5016768;28;20793;-80
2022/03/18 00:04:47;;;;;;;62.47;42.67;;;8.40;77.80;;;7.05;76.07;99541.38;5014928;28;20539;-79
2022/03/18 00:07:16;;;;;;;53.93;41.20;;;8.30;78.10;;;7.03;75.58;99533.47;5031768;28;20442;-80
2022/03/18 00:09:43;;;;;;;54.20;42.27;;;8.30;78.10;;;6.93;76.11;99538.94;5016443;28;20851;-79
2022/03/18 00:12:12;;;;;;;53.57;41.77;;;8.30;78.50;;;6.93;76.67;99548.84;5016301;28;20941;-80
2022/03/18 00:14:40;;;;;;;54.17;39.73;;;8.20;78.80;;;7.09;75.60;99548.13;5014683;28;20482;-80
2022/03/18 00:17:08;;;;;;;55.07;43.63;;;8.30;79.00;;;7.25;75.36;99560.03;5015019;28;20780;-81
2022/03/18 00:19:35;;;;;;;53.43;43.20;;;8.40;79.00;;;7.16;75.29;99545.66;5016429;28;20887;-80
2022/03/18 00:22:03;;;;;;;60.83;43.17;;;8.40;78.80;;;7.08;76.14;99549.13;5015083;28;20443;-79
2022/03/18 00:24:33;;;;;;;54.10;40.93;;;8.40;79.40;;;7.18;76.02;99554.41;5014848;28;20470;-80
2022/03/18 00:27:01;;;;;;;57.03;41.07;;;8.40;79.20;;;7.05;76.77;99558.38;5014882;28;20444;-81
2022/03/18 00:29:29;;;;;;;57.03;40.33;;;8.40;79.60;;;7.11;76.57;99548.81;5014894;28;20435;-81
2022/03/18 00:31:57;;;;;;;54.60;40.97;;;8.40;79.70;;;6.87;76.73;99527.97;5016342;28;20475;-80
2022/03/18 00:34:24;;;;;;;58.60;41.37;;;8.40;79.90;;;7.08;76.93;99558.06;5016281;28;20444;-80
2022/03/18 00:36:52;;;;;;;52.33;39.30;;;8.40;80.20;;;6.89;77.72;99552.81;5014898;28;20448;-80
2022/03/18 00:39:20;;;;;;;56.80;40.07;;;8.30;80.40;;;6.93;77.59;99554.22;5014572;28;20439;-81
2022/03/18 00:41:48;;;;;;;53.97;36.60;;;8.30;80.80;;;7.01;77.15;99556.97;5014594;28;20442;-80
2022/03/18 00:44:15;;;;;;;51.90;37.10;;;8.30;80.90;;;6.93;77.63;99564.97;5014436;28;20477;-80
2022/03/18 00:46:43;;;;;;;59.03;38.20;;;8.30;81.00;;;6.89;77.73;99561.75;5014395;28;20505;-80
2022/03/18 00:52:04;;;;;;;55.43;37.53;;;8.20;81.20;;;6.72;78.83;99567.97;5015756;28;20458;-80
2022/03/18 00:54:35;;;;;;;51.23;35.00;;;8.10;81.90;;;6.76;78.31;99574.72;5014832;28;20611;-79
2022/03/18 00:57:05;;;;;;;55.13;39.37;;;8.10;81.90;;;6.72;78.74;99567.97;5015550;28;20451;-79
2022/03/18 00:59:32;;;;;;;55.10;37.43;;;8.10;82.20;;;6.69;78.57;99569.09;5014073;28;20450;-78
2022/03/18 01:02:00;;;;;;;55.87;38.13;;;8.00;82.20;;;6.61;79.10;99555.59;5014995;28;20485;-78
2022/03/18 01:04:29;;;;;;;51.80;37.47;;;8.00;82.30;;;6.66;79.06;99572.09;5014980;28;20474;-78
2022/03/18 01:06:57;;;;;;;52.40;35.13;;;8.00;82.90;;;6.67;78.56;99571.09;5015275;28;20439;-79
2022/03/18 01:09:26;;;;;;;52.53;36.37;;;8.00;82.50;;;6.59;79.34;99569.16;5030112;28;20933;-79
2022/03/18 01:11:55;;;;;;;48.27;34.73;;;8.00;83.00;;;6.62;79.28;99584.16;5015254;28;20486;-80
2022/03/18 01:14:25;;;;;;;53.63;35.00;;;8.00;83.00;;;6.55;79.34;99575.00;5014543;28;20467;-79
2022/03/18 01:16:52;;;;;;;54.77;35.70;;;7.90;83.10;;;6.55;79.76;99580.38;5016252;28;20454;-79
2022/03/18 01:19:19;;;;;;;48.60;36.87;;;7.90;83.60;;;6.51;79.91;99582.50;5015242;28;20525;-79
2022/03/18 01:21:46;;;;;;;53.00;37.27;;;7.90;83.80;;;6.42;80.38;99578.88;5014998;28;20471;-80
2022/03/18 01:24:13;;;;;;;54.17;35.77;;;7.80;84.30;;;6.38;80.57;99581.03;5013759;28;20462;-80
2022/03/18 01:26:41;;;;;;;50.30;33.40;;;7.70;83.90;;;6.32;80.69;99583.47;5014844;28;20975;-80
2022/03/18 01:29:08;;;;;;;55.80;37.33;;;7.70;84.40;;;6.24;80.95;99586.91;5013467;28;20538;-81
2022/03/18 01:31:37;;;;;;;51.97;34.67;;;7.60;84.90;;;6.29;80.89;99589.13;5015081;28;20529;-81
2022/03/18 01:34:04;;;;;;;53.37;34.33;;;7.70;85.00;;;6.31;80.34;99584.47;5014768;28;20447;-80
2022/03/18 01:36:31;;;;;;;51.00;33.90;;;7.70;85.00;;;6.31;80.34;99582.63;5013900;28;20463;-80
2022/03/18 01:38:59;;;;;;;50.27;34.63;;;7.70;85.00;;;6.20;81.18;99601.59;5016022;28;20475;-80
2022/03/18 01:41:26;;;;;;;51.10;33.33;;;7.60;85.20;;;6.15;81.48;99577.91;5032015;28;20455;-79
2022/03/18 01:43:55;;;;;;;54.33;35.70;;;7.60;85.60;;;6.14;81.44;99586.09;5038051;28;20442;-79
2022/03/18 01:46:22;;;;;;;52.93;34.77;;;7.60;86.10;;;6.15;81.49;99601.22;5025324;28;20520;-81
2022/03/18 01:48:52;;;;;;;50.90;32.17;;;7.50;85.70;;;6.15;81.10;99594.00;5017840;28;20448;-80
2022/03/18 01:51:22;;;;;;;54.77;34.63;;;7.60;86.10;;;6.14;81.96;99600.38;5014573;28;20441;-80
2022/03/18 01:54:44;;;;;;;55.60;34.87;;;7.50;86.40;;;6.15;81.98;99599.38;5014931;28;20526;-79
2022/03/18 01:56:39;;;;;;;59.90;36.33;;;7.50;86.60;;;6.15;81.69;99603.88;5015272;28;20544;-80
2022/03/18 01:59:06;;;;;;;57.63;35.50;;;7.50;86.60;;;6.17;81.94;99607.25;5016490;28;20525;-80
2022/03/18 02:01:33;;;;;;;59.17;37.33;;;7.50;86.90;;;6.15;81.56;99598.53;5029608;28;20518;-82
2022/03/18 02:04:02;;;;;;;49.07;32.80;;;7.50;86.80;;;6.19;82.16;99610.66;5014577;28;20473;-81
2022/03/18 02:06:29;;;;;;;52.00;33.17;;;7.50;86.70;;;6.12;82.26;99610.38;5013521;28;20490;-81
2022/03/18 02:08:56;;;;;;;51.20;34.47;;;7.50;87.20;;;6.14;82.14;99615.63;5014468;28;20467;-81
2022/03/18 02:11:25;;;;;;;50.03;33.50;;;7.50;87.10;;;6.06;82.63;99622.56;5013466;28;20451;-81
2022/03/18 02:13:54;;;;;;;49.03;31.77;;;7.40;87.40;;;5.95;81.73;99577.94;5012819;28;20485;-81
2022/03/18 02:16:21;;;;;;;52.30;35.07;;;7.50;86.90;;;6.23;82.07;99629.00;5028897;28;20961;-82
2022/03/18 02:18:47;;;;;;;53.73;34.07;;;7.60;86.60;;;6.21;81.46;99630.97;5012924;28;20447;-82
2022/03/18 02:21:16;;;;;;;53.87;34.40;;;7.60;86.60;;;6.21;82.22;99630.97;5014380;28;20937;-81
2022/03/18 02:23:45;;;;;;;53.87;35.70;;;7.60;86.60;;;6.18;81.98;99625.06;5014192;28;20466;-81
2022/03/18 02:26:15;;;;;;;49.70;31.87;;;7.60;86.60;;;6.14;82.30;99624.53;5012621;28;20561;-81
2022/03/18 02:28:42;;;;;;;54.20;34.50;;;7.50;86.80;;;6.16;81.42;99629.72;5014624;28;20959;-80
2022/03/18 02:31:10;;;;;;;50.90;33.50;;;7.50;86.80;;;5.85;81.66;99582.53;5014149;28;20455;-81
2022/03/18 02:33:37;;;;;;;51.37;33.33;;;7.50;86.60;;;6.04;81.97;99619.19;5014046;28;20473;-80
2022/03/18 02:36:05;;;;;;;52.27;33.83;;;7.40;87.10;;;6.09;81.83;99632.16;5014400;28;20447;-81
2022/03/18 02:38:32;;;;;;;52.20;33.40;;;7.40;87.10;;;6.08;81.68;99625.09;5014565;28;20516;-81
2022/03/18 02:41:01;;;;;;;47.90;33.20;;;7.50;87.10;;;6.12;81.80;99633.72;5012612;28;20937;-81
2022/03/18 02:43:29;;;;;;;49.80;31.37;;;7.40;87.50;;;6.04;82.25;99629.06;5014369;28;20479;-79
2022/03/18 02:45:56;;;;;;;50.90;32.37;;;7.40;87.10;;;6.06;82.17;99629.78;5014186;28;20875;-81
2022/03/18 02:48:23;;;;;;;48.40;33.37;;;7.40;87.40;;;5.94;82.60;99635.28;5013459;28;20478;-80
2022/03/18 02:50:50;;;;;;;51.77;32.83;;;7.40;87.60;;;6.03;82.44;99633.59;5013911;28;20503;-80
2022/03/18 02:53:17;;;;;;;46.20;30.87;;;7.40;87.50;;;5.99;82.65;99625.94;5013600;28;20445;-80
2022/03/18 02:55:44;;;;;;;49.60;31.57;;;7.40;87.50;;;5.98;82.58;99624.25;5012298;28;20988;-79
2022/03/18 02:58:12;;;;;;;44.10;30.30;;;7.40;87.80;;;6.05;81.96;99634.28;5029255;28;20435;-79
2022/03/18 03:00:39;;;;;;;45.93;30.47;;;7.40;87.40;;;5.98;82.22;99629.63;5028331;28;20445;-79
2022/03/18 03:03:06;;;;;;;44.43;30.37;;;7.40;87.30;;;5.94;82.49;99635.28;5014036;28;20857;-79
2022/03/18 03:08:18;;;;;;;40.60;27.17;;;7.30;87.80;;;5.99;82.54;99644.72;5017155;28;20593;-80
2022/03/18 03:10:45;;;;;;;39.57;27.17;;;7.30;87.70;;;5.90;82.19;99647.28;5032683;28;20434;-80
2022/03/18 03:13:14;;;;;;;40.63;26.60;;;7.30;87.90;;;5.96;82.40;99657.44;5017378;28;20471;-81
2022/03/18 03:15:41;;;;;;;37.97;26.03;;;7.30;87.80;;;5.63;82.75;99611.34;5017737;28;20832;-79
2022/03/18 03:18:08;;;;;;;37.03;25.60;;;7.30;88.10;;;5.65;82.75;99630.81;5017431;28;20481;-78
2022/03/18 03:20:35;;;;;;;41.00;26.83;;;7.20;88.00;;;5.79;83.01;99664.41;5017341;28;20435;-78
2022/03/18 03:23:02;;;;;;;33.97;24.30;;;7.20;88.10;;;5.77;83.14;99663.72;5017920;28;20454;-77
2022/03/18 03:25:29;;;;;;;36.10;25.20;;;7.20;88.40;;;5.78;82.57;99677.97;5018646;28;20533;-78
2022/03/18 03:27:56;;;;;;;38.67;25.83;;;7.20;88.40;;;5.80;82.70;99671.47;5019010;28;20451;-78
2022/03/18 03:30:25;;;;;;;37.43;26.40;;;7.20;88.00;;;5.76;83.23;99680.81;5019917;28;20457;-79
2022/03/18 03:32:53;;;;;;;35.10;24.70;;;7.20;88.20;;;5.77;83.14;99676.25;5018575;28;20529;-78
2022/03/18 03:35:20;;;;;;;39.07;25.47;;;7.20;87.70;;;5.76;82.80;99691.53;5018445;28;20488;-79
2022/03/18 03:37:47;;;;;;;41.33;28.23;;;7.20;87.80;;;5.72;83.04;99689.28;5034247;28;20508;-80
2022/03/18 03:40:15;;;;;;;39.87;26.33;;;7.10;88.50;;;5.82;83.02;99700.81;5021558;28;20441;-81
2022/03/18 03:42:42;;;;;;;37.60;26.53;;;7.10;88.20;;;5.77;82.14;99701.28;5038838;28;20442;-81
2022/03/18 03:45:10;;;;;;;38.10;25.40;;;7.10;87.60;;;5.72;82.63;99695.47;5021047;28;20545;-80
2022/03/18 03:47:41;;;;;;;38.43;26.40;;;7.10;87.10;;;5.73;81.82;99688.28;5022702;28;20517;-80
2022/03/18 03:50:10;;;;;;;36.67;25.13;;;7.10;87.00;;;5.72;82.27;99700.00;5020488;28;20536;-80
2022/03/18 03:52:37;;;;;;;38.80;24.43;;;7.10;86.70;;;5.70;81.23;99699.31;5022322;28;20441;-81
2022/03/18 03:55:06;;;;;;;36.37;25.23;;;7.10;86.40;;;5.63;81.52;99705.22;5022201;28;20446;-80
2022/03/18 03:57:33;;;;;;;37.27;25.87;;;7.00;86.20;;;5.64;81.41;99719.47;5021334;28;20499;-80
2022/03/18 04:00:00;;;;;;;39.83;26.87;;;7.00;86.10;;;5.66;81.29;99717.50;5016850;28;20525;-81
2022/03/18 04:02:28;;;;;;;36.90;26.13;;;7.00;86.30;;;5.61;81.47;99707.19;5016493;28;20429;-78
2022/03/18 04:04:57;;;;;;;41.30;27.20;;;7.00;86.00;;;5.61;81.81;99719.75;5016179;28;20473;-78
2022/03/18 04:07:25;;;;;;;38.07;26.07;;;7.00;86.10;;;5.42;81.40;99697.31;5016560;28;20442;-79
2022/03/18 04:09:54;;;;;;;35.90;24.77;;;7.00;86.10;;;5.62;82.22;99730.34;5016322;28;20525;-77
2022/03/18 04:12:21;;;;;;;39.77;27.40;;;7.00;86.80;;;5.48;82.16;99714.69;5016319;28;20920;-79
2022/03/18 04:14:49;;;;;;;39.33;26.80;;;6.90;87.50;;;5.29;83.09;99694.91;5031180;28;20441;-79
2022/03/18 04:17:17;;;;;;;42.70;28.77;;;6.90;88.20;;;5.51;83.24;99735.84;5031491;28;20443;-81
2022/03/18 04:19:44;;;;;;;46.17;28.73;;;6.90;88.70;;;5.49;83.48;99744.03;5031290;28;20462;-79
2022/03/18 04:22:12;;;;;;;44.00;27.23;;;6.90;88.90;;;5.36;83.79;99722.00;5014865;28;20570;-80
2022/03/18 04:24:39;;;;;;;41.43;27.90;;;6.80;89.10;;;5.35;83.50;99742.59;5016202;28;20478;-78
2022/03/18 04:27:06;;;;;;;40.50;26.63;;;6.80;89.70;;;5.28;84.11;99724.53;5014772;28;20958;-79
2022/03/18 04:29:33;;;;;;;39.37;25.67;;;6.80;89.70;;;5.47;83.42;99754.06;5015692;28;20454;-81
2022/03/18 04:32:01;;;;;;;44.07;27.33;;;6.80;89.50;;;5.46;83.85;99759.53;5014596;28;20427;-81
2022/03/18 04:34:27;;;;;;;43.23;27.30;;;6.80;89.70;;;5.34;84.82;99761.50;5015946;28;20494;-80
2022/03/18 04:36:54;;;;;;;40.83;27.37;;;6.70;90.20;;;5.34;84.20;99756.97;5016233;28;20435;-81
2022/03/18 04:39:24;;;;;;;41.83;25.90;;;6.70;90.00;;;5.48;83.55;99769.16;5030920;28;20937;-81
2022/03/18 04:41:51;;;;;;;40.97;26.03;;;6.80;89.90;;;5.39;83.60;99776.19;5015949;28;20439;-80
2022/03/18 04:44:19;;;;;;;46.33;27.90;;;6.80;90.10;;;5.39;83.91;99781.56;5014935;28;20509;-80
2022/03/18 04:46:48;;;;;;;44.87;29.37;;;6.70;90.20;;;5.31;84.79;99781.38;5015602;28;20459;-79
2022/03/18 04:49:15;;;;;;;44.17;28.90;;;6.70;90.10;;;5.45;84.62;99790.03;5013889;28;20485;-79
2022/03/18 04:51:42;;;;;;;44.87;28.33;;;6.80;90.40;;;5.33;84.52;99786.63;5030502;28;21012;-78
2022/03/18 04:54:09;;;;;;;38.90;25.80;;;6.70;90.30;;;5.34;83.74;99788.31;5016122;28;20440;-78
2022/03/18 04:59:22;;;;;;;43.17;27.00;;;6.70;90.30;;;5.20;85.21;99805.63;5015060;28;20442;-80
2022/03/18 05:01:49;;;;;;;42.97;27.53;;;6.70;90.10;;;5.29;84.01;99790.53;5015537;28;20442;-80
2022/03/18 05:04:17;;;;;;;38.40;25.70;;;6.70;90.00;;;5.24;84.27;99807.06;5014249;28;20446;-81
2022/03/18 05:06:44;;;;;;;39.13;26.27;;;6.60;90.20;;;5.29;83.87;99818.22;5015064;28;20468;-81
2022/03/18 05:09:11;;;;;;;31.80;22.67;;;6.60;89.90;;;5.23;83.89;99803.53;5031540;28;20455;-80
2022/03/18 05:11:39;;;;;;;35.83;24.60;;;6.60;88.70;;;5.17;83.89;99808.59;5016703;28;20469;-79
2022/03/18 05:14:06;;;;;;;29.53;21.83;;;6.60;89.60;;;5.21;83.02;99807.31;5017981;28;20443;-79
2022/03/18 05:16:34;;;;;;;31.30;22.00;;;6.60;88.50;;;5.06;83.02;99796.97;5022514;28;20550;-79
2022/03/18 05:19:01;;;;;;;35.80;22.60;;;6.60;88.20;;;5.06;83.39;99788.09;5026207;28;20505;-78
2022/03/18 05:21:28;;;;;;;27.97;20.70;;;6.60;88.30;;;5.15;82.67;99805.19;5045617;28;20500;-80
2022/03/18 05:23:55;;;;;;;30.03;20.80;;;6.60;88.30;;;5.21;82.56;99823.41;5040657;28;20505;-78
2022/03/18 05:26:22;;;;;;;30.37;20.07;;;6.60;88.50;;;5.19;83.23;99818.19;5021970;28;20458;-79
2022/03/18 05:28:50;;;;;;;32.40;22.07;;;6.60;88.30;;;5.21;83.52;99818.91;5036925;28;20463;-80
2022/03/18 05:31:17;;;;;;;35.07;21.73;;;6.50;88.40;;;5.16;82.96;99833.69;5034653;28;20953;-80
2022/03/18 05:33:45;;;;;;;34.20;22.33;;;6.50;88.50;;;5.14;83.41;99819.56;5033681;28;20557;-79
2022/03/18 05:36:12;;;;;;;32.13;22.93;;;6.50;88.20;;;5.12;83.13;99834.94;5034227;28;20549;-80
2022/03/18 05:38:39;;;;;;;33.27;22.40;;;6.50;88.40;;;4.78;83.66;99783.38;5014668;28;20442;-81
2022/03/18 05:41:05;;;;;;;32.70;22.40;;;6.50;88.70;;;5.09;84.06;99836.91;5014525;28;20495;-79
2022/03/18 05:43:34;;;;;;;30.10;20.63;;;6.50;88.70;;;5.13;83.29;99845.50;5014844;28;20485;-79
2022/03/18 05:46:02;;;;;;;32.30;21.77;;;6.50;88.80;;;4.96;83.01;99822.91;5012939;28;20494;-81
2022/03/18 05:48:29;;;;;;;30.90;21.40;;;6.50;88.50;;;5.13;82.76;99844.69;5016137;28;20931;-84
2022/03/18 05:50:56;;;;;;;30.23;21.77;;;6.50;87.70;;;5.15;83.53;99856.09;5030381;28;20573;-79
2022/03/18 05:53:23;;;;;;;31.07;19.63;;;6.50;88.30;;;5.24;82.81;99847.28;5030411;28;20528;-81
2022/03/18 05:58:36;;;;;;;28.13;19.63;;;6.60;87.30;;;5.21;82.75;99852.88;5014637;28;20533;-87
2022/03/18 06:01:04;;;;;;;29.40;20.47;;;6.60;87.40;;;5.25;81.80;99870.41;5014171;28;20999;-84
2022/03/18 06:03:33;;;;;;;25.97;19.20;;;6.60;86.80;;;5.26;81.92;99861.38;5013153;28;20437;-85
2022/03/18 06:06:00;;;;;;;29.70;19.97;;;6.60;87.00;;;5.27;81.96;99863.06;5012826;28;20814;-82
2022/03/18 06:13:58;;;;;;;27.73;18.63;;;6.60;86.90;;;5.15;82.18;99886.41;4987320;28;20477;-75
2022/03/18 06:16:27;;;;;;;28.87;20.07;;;6.60;86.80;;;5.16;82.67;99881.91;5013852;28;20428;-77
2022/03/18 06:18:54;;;;;;;29.77;19.60;;;6.60;86.80;;;5.25;81.86;99881.13;5013797;28;20501;-77
2022/03/18 06:21:22;;;;;;;29.20;19.93;;;6.60;86.30;;;5.25;81.29;99881.13;5013714;28;20438;-77
2022/03/18 06:23:49;;;;;;;29.77;19.30;;;6.60;86.20;;;5.19;81.75;99884.31;5012880;28;20450;-76
2022/03/18 06:26:16;;;;;;;30.40;20.83;;;6.60;86.50;;;5.08;82.04;99867.38;5012133;28;20512;-79
2022/03/18 06:28:44;;;;;;;31.43;20.07;;;6.60;86.30;;;5.23;82.10;99889.28;5013926;28;20525;-78
2022/03/18 06:31:11;;;;;;;30.17;20.20;;;6.60;86.50;;;5.38;81.21;99887.09;5012057;28;20452;-75
2022/03/18 06:33:43;;;;;;;29.87;20.67;;;6.70;85.70;;;5.45;80.66;99890.06;5013415;28;20499;-74
2022/03/18 06:36:10;;;;;;;30.70;19.40;;;6.80;85.00;;;5.26;80.45;99866.75;5012393;28;20450;-75
2022/03/18 06:38:38;;;;;;;29.33;19.77;;;6.80;85.00;;;5.57;80.20;99906.91;5012525;28;20466;-75
2022/03/18 06:41:05;;;;;;;31.47;19.70;;;6.90;84.80;;;5.67;79.92;99906.94;5013810;28;20799;-75
2022/03/18 06:43:32;;;;;;;28.07;19.27;;;7.00;83.90;;;5.71;79.29;99921.75;5012994;28;20445;-80
2022/03/18 06:46:00;;;;;;;25.70;19.47;;;7.00;83.70;;;5.65;79.76;99915.09;5011705;28;20871;-74
2022/03/18 06:48:27;;;;;;;26.80;19.37;;;7.10;83.20;;;5.68;78.96;99922.88;5013784;28;20446;-73
2022/03/18 06:50:56;;;;;;;28.03;20.33;;;7.10;83.20;;;5.76;78.91;99916.84;5012181;28;20459;-72
2022/03/18 06:53:23;;;;;;;25.10;18.10;;;7.10;83.10;;;5.78;79.19;99930.09;5013250;28;20533;-73
2022/03/18 06:55:50;;;;;;;28.20;19.60;;;7.10;82.60;;;5.82;78.61;99932.38;5012901;28;20521;-73
2022/03/18 06:58:17;;;;;;;24.97;18.03;;;7.20;82.50;;;5.82;78.59;99936.88;5028487;28;20545;-73
2022/03/18 07:00:44;;;;;;;27.77;18.50;;;7.20;82.30;;;5.85;78.08;99933.94;5028188;28;20470;-72
2022/03/18 07:03:12;;;;;;;24.57;18.67;;;7.20;82.00;;;5.82;77.73;99915.41;5013169;28;20930;-73
2022/03/18 07:05:39;;;;;;;27.43;18.43;;;7.30;81.90;;;5.63;78.36;99906.34;5028015;28;20512;-73
2022/03/18 07:08:07;;;;;;;29.50;18.50;;;7.20;81.80;;;5.87;77.46;99934.66;5011513;28;20501;-73
2022/03/18 07:10:34;;;;;;;27.53;19.57;;;7.30;81.70;;;6.00;77.18;99933.53;5013020;28;20937;-72
2022/03/18 07:13:01;;;;;;;28.47;18.13;;;7.30;81.50;;;6.02;77.16;99942.34;5012630;28;20936;-73
2022/03/18 07:15:29;;;;;;;28.00;19.80;;;7.40;81.40;;;6.12;77.42;99937.81;5012927;28;20505;-73
2022/03/18 07:17:55;;;;;;;28.23;19.30;;;7.40;81.00;;;6.20;76.30;99939.78;5013287;28;20447;-72
2022/03/18 07:20:22;;;;;;;24.60;18.17;;;7.60;80.70;;;6.23;76.29;99929.63;5013261;28;20450;-73
2022/03/18 07:23:01;;;;;;;25.47;17.97;;;7.70;80.30;;;6.35;76.25;99942.94;5012087;28;20460;-73
2022/03/18 07:25:30;;;;;;;28.90;18.40;;;7.70;80.00;;;6.32;75.71;99945.91;5011280;28;20483;-73
2022/03/18 07:28:00;;;;;;;25.20;18.57;;;7.70;79.80;;;6.12;76.68;99947.72;5012668;28;20935;-74
2022/03/18 07:30:27;;;;;;;30.00;19.43;;;7.60;80.20;;;6.41;75.89;99958.47;5012392;28;20436;-73
2022/03/18 07:32:54;;;;;;;27.40;18.80;;;7.70;79.80;;;6.23;75.60;99956.47;5013160;28;20974;-74
2022/03/18 07:35:21;;;;;;;25.83;19.77;;;7.70;79.70;;;6.16;76.46;99958.03;5028428;28;20888;-76
2022/03/18 07:37:50;;;;;;;28.40;19.10;;;7.60;79.80;;;6.36;75.60;99958.88;5011673;28;20450;-74
2022/03/18 07:40:18;;;;;;;29.43;18.43;;;7.70;79.70;;;6.31;75.65;99971.06;5013013;28;20491;-73
2022/03/18 07:42:50;;;;;;;28.73;20.30;;;7.70;79.40;;;6.31;75.87;99969.19;5013299;28;20498;-73
2022/03/18 07:45:21;;;;;;;24.90;18.60;;;7.70;79.40;;;6.22;76.05;99970.88;5029294;28;20449;-73
2022/03/18 07:47:49;;;;;;;28.33;18.60;;;7.60;79.40;;;6.20;76.13;99982.75;5028948;28;20536;-76
2022/03/18 07:50:20;;;;;;;25.13;17.83;;;7.60;79.70;;;6.05;75.93;99972.41;5016854;28;20435;-75
2022/03/18 07:52:49;;;;;;;26.10;18.67;;;7.50;79.70;;;5.74;76.65;99921.47;5016855;28;20557;-75
2022/03/18 07:55:18;;;;;;;25.20;18.40;;;7.50;79.80;;;6.16;76.22;99984.88;5016437;28;20438;-75
2022/03/18 07:57:47;;;;;;;26.70;18.73;;;7.60;79.70;;;6.42;75.98;99987.00;5016073;28;20534;-73
2022/03/18 08:00:16;;;;;;;26.60;18.30;;;7.70;79.80;;;6.51;74.36;99986.19;5017848;28;20501;-80
2022/03/18 08:02:45;;;;;;;28.40;19.10;;;7.80;79.00;;;6.70;74.04;99995.22;5016271;28;20491;-77
2022/03/18 08:05:12;;;;;;;23.97;17.43;;;8.00;78.80;;;6.79;73.39;99994.38;5016995;28;20458;-76
2022/03/18 08:07:41;;;;;;;24.67;18.10;;;8.10;78.10;;;6.88;73.12;99991.81;5016152;28;20566;-76
2022/03/18 08:10:11;;;;;;;30.87;18.93;;;8.30;77.90;;;7.02;72.42;100003.97;5016453;28;20533;-76
2022/03/18 08:12:40;;;;;;;23.90;16.90;;;8.30;77.50;;;6.99;72.46;100010.47;5014661;28;20447;-77
2022/03/18 08:15:12;;;;;;;25.67;18.80;;;8.40;77.40;;;7.00;72.87;100001.41;5014364;28;20946;-76
2022/03/18 08:17:40;;;;;;;27.07;18.53;;;8.30;77.40;;;6.98;71.61;99955.03;5016006;28;20526;-77
2022/03/18 08:20:11;;;;;;;26.80;17.93;;;8.60;77.00;;;7.22;71.21;99994.88;5016067;28;20436;-75
2022/03/18 08:22:40;;;;;;;23.97;18.23;;;8.60;76.50;;;7.02;72.28;100002.13;5014229;28;20485;-76
2022/03/18 08:25:09;;;;;;;23.63;17.30;;;8.50;76.70;;;7.09;72.26;100005.06;5031037;28;20451;-78
2022/03/18 08:27:36;;;;;;;21.00;16.97;;;8.40;76.80;;;7.27;71.47;100002.50;5014731;28;20907;-77
2022/03/18 08:30:08;;;;;;;24.00;17.53;;;8.60;76.60;;;7.30;70.90;100014.81;5017635;28;20972;-80
2022/03/18 08:32:36;;;;;;;24.93;16.57;;;8.70;76.10;;;7.01;71.62;99978.09;5034039;28;20533;-81
2022/03/18 08:35:06;;;;;;;24.60;17.80;;;8.60;76.30;;;7.25;71.29;100014.38;5018174;28;20439;-80
2022/03/18 08:40:18;;;;;;;26.43;17.43;;;8.70;76.20;;;7.50;70.57;100035.28;5018804;28;20778;-80
2022/03/18 08:42:45;;;;;;;21.83;16.50;;;8.80;75.80;;;7.42;70.01;100035.16;5022387;28;20428;-79
2022/03/18 08:45:14;;;;;;;23.60;16.80;;;8.80;75.00;;;7.46;70.04;100033.03;5033393;28;20439;-81
2022/03/18 08:47:41;;;;;;;24.27;17.97;;;8.80;75.30;;;7.60;69.26;100024.50;5034079;28;20538;-81
2022/03/18 08:50:10;;;;;;;21.27;16.80;;;8.90;75.40;;;7.76;68.76;100028.41;5033231;28;20513;-81
2022/03/18 08:52:37;;;;;;;21.53;16.53;;;9.10;74.60;;;7.62;69.04;100037.81;5047320;28;20454;-81
2022/03/18 08:55:07;;;;;;;22.50;18.00;;;9.00;74.70;;;7.65;69.34;100027.56;5032539;28;20512;-83
2022/03/18 08:57:37;;;;;;;22.03;16.60;;;9.00;74.70;;;7.67;69.10;100026.59;5029156;28;20510;-79
2022/03/18 09:00:07;;;;;;;20.63;16.33;;;9.00;74.50;;;7.72;68.47;100022.44;5021642;28;20901;-76
2022/03/18 09:02:37;;;;;;;21.33;15.67;;;9.10;74.20;;;7.75;68.48;100026.69;5019283;28;20431;-77
2022/03/18 09:05:07;;;;;;;24.80;17.33;;;9.10;74.10;;;8.01;67.40;100004.50;5022638;28;20545;-78
2022/03/18 09:07:35;;;;;;;25.43;16.33;;;9.30;74.10;;;8.23;67.46;100022.91;5021168;28;20546;-78
2022/03/18 09:10:21;;;;;;;22.43;17.10;;;9.50;73.30;;;8.46;66.28;100030.56;5018801;28;20423;-74
2022/03/18 09:12:52;;;;;;;21.17;16.20;;;9.70;72.70;;;8.34;66.23;100031.78;5015512;28;20451;-72
2022/03/18 09:15:19;;;;;;;21.60;16.90;;;9.70;72.30;;;8.02;66.95;100028.56;5013621;28;20463;-73
2022/03/18 09:17:47;;;;;;;22.23;17.00;;;9.50;72.40;;;8.07;67.26;100036.19;5015444;28;20446;-72
2022/03/18 09:20:15;;;;;;;20.97;15.80;;;9.40;72.60;;;8.25;66.51;100033.53;5014717;28;20545;-72
2022/03/18 09:22:42;;;;;;;20.90;15.80;;;9.50;72.70;;;8.08;67.00;100029.81;5016819;28;20509;-76
2022/03/18 09:25:10;;;;;;;19.87;16.10;;;9.50;72.50;;;8.06;66.96;100040.75;5013635;28;20990;-82
2022/03/18 09:27:37;;;;;;;20.67;14.87;;;9.50;72.40;;;8.03;66.96;100045.56;5013273;28;20862;-72
2022/03/18 09:30:05;;;;;;;21.30;16.10;;;9.40;72.50;;;7.96;67.25;100044.44;5014556;28;20537;-72
2022/03/18 09:32:32;;;;;;;19.73;15.00;;;9.30;72.30;;;7.84;68.05;100047.34;5012884;28;20498;-72
2022/03/18 09:35:01;;;;;;;22.63;16.57;;;9.30;72.50;;;7.90;67.68;100046.75;5014547;28;20994;-70
2022/03/18 09:37:28;;;;;;;21.43;17.03;;;9.20;72.50;;;7.89;67.73;100061.22;5013246;28;20505;-70
2022/03/18 09:39:55;;;;;;;23.43;17.40;;;9.20;72.50;;;8.28;67.14;100060.16;5012991;28;20993;-73
2022/03/18 09:42:22;;;;;;;19.37;15.80;;;9.50;72.50;;;8.71;64.94;100063.19;5014106;28;20913;-72
2022/03/18 09:44:49;;;;;;;19.00;15.13;;;9.90;71.90;;;8.77;64.17;100038.31;5014224;28;20527;-72
2022/03/18 09:47:16;;;;;;;21.97;15.87;;;10.10;70.10;;;8.76;65.19;100063.59;5014096;28;20553;-72
2022/03/18 09:49:45;;;;;;;17.50;15.60;;;10.10;70.00;;;8.65;65.02;100055.72;5029299;28;20937;-71
2022/03/18 09:52:15;;;;;;;22.60;16.90;;;10.00;69.50;;;8.55;64.78;100069.25;5014234;28;20439;-71
2022/03/18 09:54:42;;;;;;;18.17;15.00;;;9.90;70.70;;;8.70;65.34;100058.78;5014980;28;20445;-71
2022/03/18 09:57:09;;;;;;;21.50;15.10;;;10.00;69.90;;;8.64;65.14;100059.41;5029240;28;20530;-70
2022/03/18 09:59:36;;;;;;;23.80;17.90;;;10.00;69.50;;;8.73;64.76;100066.59;5013936;28;20443;-71
2022/03/18 10:02:27;;;;;;;19.40;15.60;;;10.00;69.40;;;8.81;63.92;100064.97;5013304;28;20455;-70
2022/03/18 10:04:57;;;;;;;22.33;17.17;;;10.10;69.30;;;8.78;64.70;100056.19;5013983;28;20466;-70
2022/03/18 10:07:27;;;;;;;22.10;16.60;;;10.10;69.40;;;8.84;64.57;100064.66;5013361;28;20545;-71
2022/03/18 10:10:10;;;;;;;27.60;21.00;;;10.10;69.30;;;8.85;63.84;100064.50;5013632;28;20473;-70
2022/03/18 10:12:39;;;;;;;26.50;21.90;;;10.20;68.10;;;8.49;62.95;100024.00;5012156;28;20443;-70
2022/03/18 10:15:13;;;;;;;28.90;22.07;;;10.10;67.70;;;8.93;62.94;100071.81;5013556;28;20443;-71
2022/03/18 10:17:47;;;;;;;29.23;22.03;;;10.20;67.80;;;9.27;61.62;100078.34;5012586;28;20482;-71
2022/03/18 10:20:33;;;;;;;24.20;20.87;;;10.40;67.50;;;9.18;62.25;100082.84;5014259;28;20439;-71
2022/03/18 10:23:06;;;;;;;26.40;22.10;;;10.40;66.90;;;8.88;62.01;100074.97;5013328;28;21005;-70
2022/03/18 10:25:50;;;;;;;27.40;20.83;;;10.20;66.90;;;8.92;62.93;100080.91;5029546;28;20474;-72
2022/03/18 10:28:32;;;;;;;27.47;20.83;;;10.20;67.20;;;8.88;62.11;100087.63;5012038;28;20531;-73
2022/03/18 10:31:16;;;;;;;26.00;21.73;;;10.20;66.90;;;8.79;62.66;100070.50;5013464;28;20444;-73
2022/03/18 10:39:29;;;;;;;25.10;20.87;;;10.50;66.80;;;9.74;60.56;100078.00;5012026;28;20543;-74
2022/03/18 10:42:00;;;;;;;30.87;21.67;;;10.90;65.90;;;9.45;61.15;100062.09;5013309;28;20500;-73
2022/03/18 10:44:28;;;;;;;23.43;19.57;;;10.80;65.60;;;9.56;60.10;100069.94;5013335;28;20434;-74
2022/03/18 10:46:57;;;;;;;26.70;20.00;;;10.90;65.20;;;9.94;59.00;100044.53;5012024;28;20893;-73
2022/03/18 10:49:24;;;;;;;25.60;20.90;;;11.20;65.10;;;10.25;58.00;100069.13;5013368;28;20549;-71